Map

Track Data

SID SEASON NUMBER BASIN SUBBASIN NAME ISO_TIME NATURE LAT LON WMO_WIND WMO_PRES WMO_AGENCY TRACK_TYPE DIST2LAND LANDFALL IFLAG USA_AGENCY USA_ATCF_ID USA_LAT USA_LON USA_RECORD USA_STATUS USA_WIND USA_PRES USA_SSHS USA_R34_NE USA_R34_SE USA_R34_SW USA_R34_NW USA_R50_NE USA_R50_SE USA_R50_SW USA_R50_NW USA_R64_NE USA_R64_SE USA_R64_SW USA_R64_NW USA_POCI USA_ROCI USA_RMW USA_EYE TOKYO_LAT TOKYO_LON TOKYO_GRADE TOKYO_WIND TOKYO_PRES TOKYO_R50_DIR TOKYO_R50_LONG TOKYO_R50_SHORT TOKYO_R30_DIR TOKYO_R30_LONG TOKYO_R30_SHORT TOKYO_LAND CMA_LAT CMA_LON CMA_CAT CMA_WIND CMA_PRES HKO_LAT HKO_LON HKO_CAT HKO_WIND HKO_PRES NEWDELHI_LAT NEWDELHI_LON NEWDELHI_GRADE NEWDELHI_WIND NEWDELHI_PRES NEWDELHI_CI NEWDELHI_DP NEWDELHI_POCI REUNION_LAT REUNION_LON REUNION_TYPE REUNION_WIND REUNION_PRES REUNION_TNUM REUNION_CI REUNION_RMW REUNION_R34_NE REUNION_R34_SE REUNION_R34_SW REUNION_R34_NW REUNION_R50_NE REUNION_R50_SE REUNION_R50_SW REUNION_R50_NW REUNION_R64_NE REUNION_R64_SE REUNION_R64_SW REUNION_R64_NW BOM_LAT BOM_LON BOM_TYPE BOM_WIND BOM_PRES BOM_TNUM BOM_CI BOM_RMW BOM_R34_NE BOM_R34_SE BOM_R34_SW BOM_R34_NW BOM_R50_NE BOM_R50_SE BOM_R50_SW BOM_R50_NW BOM_R64_NE BOM_R64_SE BOM_R64_SW BOM_R64_NW BOM_ROCI BOM_POCI BOM_EYE BOM_POS_METHOD BOM_PRES_METHOD NADI_LAT NADI_LON NADI_CAT NADI_WIND NADI_PRES WELLINGTON_LAT WELLINGTON_LON WELLINGTON_WIND WELLINGTON_PRES DS824_LAT DS824_LON DS824_STAGE DS824_WIND DS824_PRES TD9636_LAT TD9636_LON TD9636_STAGE TD9636_WIND TD9636_PRES TD9635_LAT TD9635_LON TD9635_WIND TD9635_PRES TD9635_ROCI NEUMANN_LAT NEUMANN_LON NEUMANN_CLASS NEUMANN_WIND NEUMANN_PRES MLC_LAT MLC_LON MLC_CLASS MLC_WIND MLC_PRES USA_GUST BOM_GUST BOM_GUST_PER REUNION_GUST REUNION_GUST_PER USA_SEAHGT USA_SEARAD_NE USA_SEARAD_SE USA_SEARAD_SW USA_SEARAD_NW STORM_SPEED STORM_DIR
1959247N13266 1959 72 EP MM NOT_NAMED 1959-09-04 00:00:00 TS 13.2000 -94.0000 75 hurdat_epa main 240 240 O________OO___ hurdat_epa EP091959 13.2000 -94.0000 HU 75 1 13.2000 -94.0000 TC 75 13.2000 -94.0000 4 15 282
1959247N13266 1959 72 EP MM NOT_NAMED 1959-09-04 03:00:00 TS 13.3505 -94.7532 main 287 260 P________PP___ EP091959 13.3530 -94.7623 HU 75 1 13.3530 -94.7623 TC 75 13.3403 -94.7168 4 15 282
1959247N13266 1959 72 EP MM NOT_NAMED 1959-09-04 06:00:00 TS 13.4967 -95.4874 75 hurdat_epa main 257 228 O________OP___ hurdat_epa EP091959 13.5000 -95.5000 HU 75 1 13.5000 -95.5000 TC 75 13.4837 -95.4372 4 14 282
1959247N13266 1959 72 EP MM NOT_NAMED 1959-09-04 09:00:00 TS 13.6408 -96.1929 main 228 201 P________PP___ EP091959 13.6422 -96.2002 HU 75 1 13.6422 -96.2002 TC 75 13.6352 -96.1639 4 14 282
1959247N13266 1959 72 EP MM NOT_NAMED 1959-09-04 12:00:00 TS 13.8000 -96.9000 75 hurdat_epa main 204 197 O________OO___ hurdat_epa EP091959 13.8000 -96.9000 HU 75 1 13.8000 -96.9000 TC 75 13.8000 -96.9000 4 15 284
1959247N13266 1959 72 EP MM NOT_NAMED 1959-09-04 15:00:00 TS 13.9846 -97.6548 main 213 208 P________PP___ EP091959 13.9850 -97.6576 HU 75 1 13.9850 -97.6576 TC 75 13.9831 -97.6439 4 15 285
1959247N13266 1959 72 EP MM NOT_NAMED 1959-09-04 18:00:00 TS 14.1980 -98.3951 75 hurdat_epa main 211 208 O________OP___ hurdat_epa EP091959 14.2000 -98.4000 HU 75 1 14.2000 -98.4000 TC 75 14.1901 -98.3752 4 15 288
1959247N13266 1959 72 EP MM NOT_NAMED 1959-09-04 21:00:00 TS 14.4273 -99.0839 main 219 208 P________PP___ EP091959 14.4274 -99.0876 HU 75 1 14.4274 -99.0876 TC 75 14.4270 -99.0690 4 14 292
1959247N13266 1959 72 EP MM NOT_NAMED 1959-09-05 00:00:00 TS 14.7000 -99.7000 75 hurdat_epa main 214 195 O________OO___ hurdat_epa EP091959 14.7000 -99.7000 HU 75 1 14.7000 -99.7000 TC 75 14.7000 -99.7000 4 13 298
1959247N13266 1959 72 EP MM NOT_NAMED 1959-09-05 03:00:00 TS 15.0272 -100.232 main 197 180 P________PP___ EP091959 15.0348 -100.230 HU 75 1 15.0348 -100.230 TC 75 14.9967 -100.240 4 12 305
1959247N13266 1959 72 EP MM NOT_NAMED 1959-09-05 06:00:00 TS 15.3862 -100.704 75 hurdat_epa main 180 169 O________OP___ hurdat_epa EP091959 15.4000 -100.700 HU 75 1 15.4000 -100.700 TC 75 15.3311 -100.718 4 11 308
1959247N13266 1959 72 EP MM NOT_NAMED 1959-09-05 09:00:00 TS 15.7219 -101.153 main 173 140 P________PP___ EP091959 15.7273 -101.150 HU 75 1 15.7273 -101.150 TC 75 15.7000 -101.162 4 11 310
1959247N13266 1959 72 EP MM NOT_NAMED 1959-09-05 12:00:00 TS 16.1000 -101.600 75 hurdat_epa main 144 128 O________OO___ hurdat_epa EP091959 16.1000 -101.600 HU 75 1 16.1000 -101.600 TC 75 16.1000 -101.600 4 13 314
1959247N13266 1959 72 EP MM NOT_NAMED 1959-09-05 15:00:00 TS 16.5921 -102.105 main 128 95 P________PP___ EP091959 16.5925 -102.100 HU 75 1 16.5925 -102.100 TC 75 16.5906 -102.126 4 14 316
1959247N13266 1959 72 EP MM NOT_NAMED 1959-09-05 18:00:00 TS 17.0996 -102.609 75 hurdat_epa main 95 67 O________OP___ hurdat_epa EP091959 17.1000 -102.600 HU 75 1 17.1000 -102.600 TC 75 17.0981 -102.645 4 14 316
1959247N13266 1959 72 EP MM NOT_NAMED 1959-09-05 21:00:00 TS 17.5653 -103.099 main 59 39 P________PP___ EP091959 17.5675 -103.095 HU 75 1 17.5675 -103.095 TC 75 17.5564 -103.117 4 12 313
1959247N13266 1959 72 EP MM NOT_NAMED 1959-09-06 00:00:00 TS 17.9000 -103.500 75 hurdat_epa main 44 35 O________OO___ hurdat_epa EP091959 17.9000 -103.500 HU 75 1 17.9000 -103.500 TC 75 17.9000 -103.500 4 8 306
1959247N13266 1959 72 EP MM NOT_NAMED 1959-09-06 03:00:00 TS 18.0179 -103.746 main 39 39 P________PP___ EP091959 18.0098 -103.753 HU 75 1 18.0098 -103.753 TC 75 18.0503 -103.716 4 4 287
1959247N13266 1959 72 EP MM NOT_NAMED 1959-09-06 06:00:00 TS 18.0168 -103.889 75 hurdat_epa main 53 53 O________OP___ hurdat_epa EP091959 18.0000 -103.900 HU 75 1 18.0000 -103.900 TC 75 18.0838 -103.847 4 2 269
1959247N13266 1959 72 EP MM NOT_NAMED 1959-09-06 09:00:00 TS 18.0160 -103.973 main 62 62 P________PP___ EP091959 18.0074 -103.978 HU 75 1 18.0074 -103.978 TC 75 18.0504 -103.953 4 2 265
1959247N13266 1959 72 EP MM NOT_NAMED 1959-09-06 12:00:00 TS 18.0000 -104.100 75 hurdat_epa main 71 71 O________OO___ hurdat_epa EP091959 18.0000 -104.100 HU 75 1 18.0000 -104.100 TC 75 18.0000 -104.100 4 4 268
1959247N13266 1959 72 EP MM NOT_NAMED 1959-09-06 15:00:00 TS 17.9991 -104.412 main 100 100 P________PP___ EP091959 18.0001 -104.420 HU 75 1 18.0001 -104.420 TC 75 17.9952 -104.379 4 6 270
1959247N13266 1959 72 EP MM NOT_NAMED 1959-09-06 18:00:00 TS 17.9971 -104.781 75 hurdat_epa main 123 123 O________OP___ hurdat_epa EP091959 18.0000 -104.800 HU 75 1 18.0000 -104.800 TC 75 17.9853 -104.705 4 7 269
1959247N13266 1959 72 EP MM NOT_NAMED 1959-09-06 21:00:00 TS 17.9905 -105.097 main 137 137 P________PP___ EP091959 17.9924 -105.108 HU 75 1 17.9924 -105.108 TC 75 17.9827 -105.054 4 6 270
1959247N13266 1959 72 EP MM NOT_NAMED 1959-09-07 00:00:00 TS 18.0000 -105.400 75 hurdat_epa main 148 148 O________OO___ hurdat_epa EP091959 18.0000 -105.400 HU 75 1 18.0000 -105.400 TC 75 18.0000 -105.400 4 6 275
1959247N13266 1959 72 EP MM NOT_NAMED 1959-09-07 03:00:00 TS 18.0370 -105.702 main 164 162 P________PP___ EP091959 18.0350 -105.700 HU 75 1 18.0350 -105.700 TC 75 18.0452 -105.711 4 6 280
1959247N13266 1959 72 EP MM NOT_NAMED 1959-09-07 06:00:00 TS 18.1025 -106.003 75 hurdat_epa main 176 176 O________OP___ hurdat_epa EP091959 18.1000 -106.000 HU 75 1 18.1000 -106.000 TC 75 18.1123 -106.015 4 6 285
1959247N13266 1959 72 EP MM NOT_NAMED 1959-09-07 09:00:00 TS 18.1936 -106.302 main 191 191 P________PP___ EP091959 18.1925 -106.300 HU 75 1 18.1925 -106.300 TC 75 18.1983 -106.311 4 6 289
1959247N13266 1959 72 EP MM NOT_NAMED 1959-09-07 12:00:00 TS 18.3000 -106.600 75 hurdat_epa main 207 207 O________OO___ hurdat_epa EP091959 18.3000 -106.600 HU 75 1 18.3000 -106.600 TC 75 18.3000 -106.600 4 6 289
1959247N13266 1959 72 EP MM NOT_NAMED 1959-09-07 15:00:00 TS 18.3937 -106.907 main 222 222 P________PP___ EP091959 18.3925 -106.908 HU 75 1 18.3925 -106.908 TC 75 18.3985 -106.907 4 6 290
1959247N13266 1959 72 EP MM NOT_NAMED 1959-09-07 18:00:00 TS 18.5025 -107.201 75 hurdat_epa main 240 240 O________OP___ hurdat_epa EP091959 18.5000 -107.200 HU 75 1 18.5000 -107.200 TC 75 18.5126 -107.202 4 6 294
1959247N13266 1959 72 EP MM NOT_NAMED 1959-09-07 21:00:00 TS 18.6371 -107.472 main 261 255 P________PP___ EP091959 18.6350 -107.473 HU 75 1 18.6350 -107.473 TC 75 18.6454 -107.472 4 6 302
1959247N13266 1959 72 EP MM NOT_NAMED 1959-09-08 00:00:00 TS 18.8000 -107.700 75 hurdat_epa main 266 265 O________OO___ hurdat_epa EP091959 18.8000 -107.700 HU 75 1 18.8000 -107.700 TC 75 18.8000 -107.700 4 5 312
1959247N13266 1959 72 EP MM NOT_NAMED 1959-09-08 03:00:00 TS 18.9856 -107.873 main 275 270 P________PP___ EP091959 18.9925 -107.873 HU 75 1 18.9925 -107.873 TC 75 18.9579 -107.876 4 5 324
1959247N13266 1959 72 EP MM NOT_NAMED 1959-09-08 06:00:00 TS 19.1880 -108.002 75 hurdat_epa main 275 270 O________OP___ hurdat_epa EP091959 19.2000 -108.000 HU 75 1 19.2000 -108.000 TC 75 19.1398 -108.010 4 5 330
1959247N13266 1959 72 EP MM NOT_NAMED 1959-09-08 09:00:00 TS 19.3843 -108.115 main 274 270 P________PP___ EP091959 19.3925 -108.115 HU 75 1 19.3925 -108.115 TC 75 19.3517 -108.114 4 5 336
1959247N13266 1959 72 EP MM NOT_NAMED 1959-09-08 12:00:00 TS 19.6000 -108.200 75 hurdat_epa main 276 269 O________OO___ hurdat_epa EP091959 19.6000 -108.200 HU 75 1 19.6000 -108.200 TC 75 19.6000 -108.200 4 5 343
1959247N13266 1959 72 EP MM NOT_NAMED 1959-09-08 15:00:00 TS 19.8281 -108.252 main 279 273 P________PP___ EP091959 19.8200 -108.250 HU 75 1 19.8200 -108.250 TC 75 19.8604 -108.258 4 5 350
1959247N13266 1959 72 EP MM NOT_NAMED 1959-09-08 18:00:00 TS 20.1119 -108.301 75 hurdat_epa main 273 270 O________OP___ hurdat_epa EP091959 20.1000 -108.300 HU 75 1 20.1000 -108.300 TC 75 20.1597 -108.306 4 7 350
1959247N13266 1959 72 EP MM NOT_NAMED 1959-09-08 21:00:00 TS 20.4708 -108.372 main 281 260 P________PP___ EP091959 20.4625 -108.370 HU 75 1 20.4625 -108.370 TC 75 20.5041 -108.377 4 8 347
1959247N13266 1959 72 EP MM NOT_NAMED 1959-09-09 00:00:00 TS 20.9000 -108.500 75 hurdat_epa main 260 211 O________OO___ hurdat_epa EP091959 20.9000 -108.500 HU 75 1 20.9000 -108.500 TC 75 20.9000 -108.500 4 10 340
1959247N13266 1959 72 EP MM NOT_NAMED 1959-09-09 03:00:00 TS 21.3772 -108.718 main 202 138 P________PP___ EP091959 21.3850 -108.720 HU 75 1 21.3850 -108.720 TC 75 21.3458 -108.709 4 11 335
1959247N13266 1959 72 EP MM NOT_NAMED 1959-09-09 06:00:00 TS 21.8880 -108.995 75 hurdat_epa main 138 75 O________OP___ hurdat_epa EP091959 21.9000 -109.000 HU 75 1 21.9000 -109.000 TC 75 21.8402 -108.975 4 11 332
1959247N13266 1959 72 EP MM NOT_NAMED 1959-09-09 09:00:00 TS 22.3869 -109.290 main 75 15 P________PP___ EP091959 22.3925 -109.293 HU 75 1 22.3925 -109.293 TC 75 22.3645 -109.278 4 12 331
1959247N13266 1959 72 EP MM NOT_NAMED 1959-09-09 12:00:00 TS 22.9000 -109.600 75 hurdat_epa main 15 0 O________OO___ hurdat_epa EP091959 22.9000 -109.600 HU 75 1 22.9000 -109.600 TC 75 22.9000 -109.600 4 12 332
1959247N13266 1959 72 EP MM NOT_NAMED 1959-09-09 15:00:00 TS 23.4524 -109.895 main 0 0 P________PP___ EP091959 23.4499 -109.893 HU 75 1 23.4499 -109.893 TC 75 23.4623 -109.902 4 12 333
1959247N13266 1959 72 EP MM NOT_NAMED 1959-09-09 18:00:00 TS 24.0049 -110.204 75 hurdat_epa main 0 0 O________OP___ hurdat_epa EP091959 24.0000 -110.200 HU 75 1 24.0000 -110.200 TC 75 24.0246 -110.219 4 12 331
1959247N13266 1959 72 EP MM NOT_NAMED 1959-09-09 21:00:00 TS 24.5399 -110.544 main 20 0 P________PP___ EP091959 24.5375 -110.542 HU 75 1 24.5375 -110.542 TC 75 24.5497 -110.552 4 12 328
1959247N13266 1959 72 EP MM NOT_NAMED 1959-09-10 00:00:00 TS 25.0000 -110.900 75 hurdat_epa main 0 0 O________OO___ hurdat_epa EP091959 25.0000 -110.900 HU 75 1 25.0000 -110.900 TC 75 25.0000 -110.900 4 10 321
1959247N13266 1959 72 EP MM NOT_NAMED 1959-09-10 03:00:00 TS 25.3343 -111.244 main 0 0 P________PP___ EP091959 25.3448 -111.243 HU 75 1 25.3448 -111.243 TC 75 25.2920 -111.247 4 9 313
1959247N13266 1959 72 EP MM NOT_NAMED 1959-09-10 06:00:00 TS 25.5829 -111.602 75 hurdat_epa main 0 0 O________OP___ hurdat_epa EP091959 25.6000 -111.600 HU 75 1 25.6000 -111.600 TC 75 25.5143 -111.609 4 8 303
1959247N13266 1959 72 EP MM NOT_NAMED 1959-09-10 09:00:00 TS 25.7738 -111.987 main 0 0 P________PP___ EP091959 25.7849 -111.986 HU 75 1 25.7849 -111.986 TC 75 25.7294 -111.991 4 8 300
1959247N13266 1959 72 EP MM NOT_NAMED 1959-09-10 12:00:00 TS 26.0000 -112.400 75 hurdat_epa main 14 0 O________OO___ hurdat_epa EP091959 26.0000 -112.400 HU 75 1 26.0000 -112.400 TC 75 26.0000 -112.400 4 10 307
1959247N13266 1959 72 EP MM NOT_NAMED 1959-09-10 15:00:00 TS 26.3525 -112.836 main 0 0 P________PP___ EP091959 26.3474 -112.835 HU 75 1 26.3474 -112.835 TC 75 26.3731 -112.841 4 11 315
1959247N13266 1959 72 EP MM NOT_NAMED 1959-09-10 18:00:00 TS 26.8054 -113.301 75 hurdat_epa main 0 0 O________OP___ hurdat_epa EP091959 26.8000 -113.300 HU 75 1 26.8000 -113.300 TC 75 26.8342 -113.309 4 13 317
1959247N13266 1959 72 EP MM NOT_NAMED 1959-09-10 21:00:00 TS 27.2904 -113.807 main 0 0 P________PP___ EP091959 27.2826 -113.808 HU 75 1 27.2826 -113.808 TC 75 27.3532 -113.798 4 14 321
1959247N13266 1959 72 EP MM NOT_NAMED 1959-09-11 00:00:00 TS 27.9000 -114.300 75 hurdat_epa main 0 0 O________OO___ hurdat_epa EP091959 27.9000 -114.300 HU 75 1 27.9000 -114.300 TC 75 27.9000 -114.300 4 16 330
1959247N13266 1959 72 EP MM NOT_NAMED 1959-09-11 03:00:00 TS 28.6673 -114.716 main 36 0 P________P____ EP091959 28.6673 -114.716 HU 60 0 28.6673 -114.716 TC 75 4 18 338
1959247N13266 1959 72 EP MM NOT_NAMED 1959-09-11 06:00:00 MX 29.6000 -115.100 45 hurdat_epa main 0 0 O________O____ hurdat_epa EP091959 29.6000 -115.100 TS 45 0 29.6000 -115.100 75 4 21 341
1959247N13266 1959 72 EP MM NOT_NAMED 1959-09-11 09:00:00 MX 30.6653 -115.493 main 0 0 P________P____ EP091959 30.6653 -115.493 TS 35 0 30.6653 -115.493 70 4 23 343
1959247N13266 1959 72 EP MM NOT_NAMED 1959-09-11 12:00:00 MX 31.8000 -115.900 25 hurdat_epa main 0 O________O____ hurdat_epa EP091959 31.8000 -115.900 TD 25 -1 31.8000 -115.900 65 24 343

About IBTrACS Database

This database is a web-friendly format of International Best Track Archive for Climate Stewardship (IBTrACS), a global best track data archive curated by NOAA dating back to 1842.

Updated: 2021-10-19